Time;durP1;ratioP1;P1;durP2;ratioP2;P2;SDS_P1;SDS_P2;PMS_P1;PMS_P2;Temp;Humidity;BMP_temperature;BMP_pressure;BME280_temperature;BME280_humidity;BME280_pressure;Samples;Min_cycle;Max_cycle;Signal;HPM_P1;HPM_P2
2022/04/23 00:01:08;;;;;;;24.83;17.23;;;;;;;7.69;100.00;97601.44;5043280;28;20574;-66
2022/04/23 00:03:34;;;;;;;26.83;18.00;;;;;;;7.75;100.00;97610.69;5041217;28;20036;-66
2022/04/23 00:06:00;;;;;;;27.07;19.07;;;;;;;7.69;100.00;97615.91;5044285;28;20368;-66
2022/04/23 00:08:26;;;;;;;24.33;16.87;;;;;;;7.73;100.00;97613.25;5045001;28;20029;-67
2022/04/23 00:10:51;;;;;;;25.03;17.83;;;;;;;7.65;100.00;97599.84;5042796;28;20467;-66
2022/04/23 00:13:17;;;;;;;29.20;19.30;;;;;;;7.65;100.00;97596.47;5041404;28;20029;-66
2022/04/23 00:15:43;;;;;;;25.93;17.73;;;;;;;7.57;100.00;97595.81;5044101;28;20044;-66
2022/04/23 00:18:09;;;;;;;26.30;17.57;;;;;;;7.64;100.00;97600.72;5044413;28;20036;-66
2022/04/23 00:20:36;;;;;;;29.47;18.87;;;;;;;7.52;100.00;97588.25;5041927;28;20125;-66
2022/04/23 00:23:02;;;;;;;31.00;19.87;;;;;;;7.39;100.00;97576.66;5040512;28;20037;-66
2022/04/23 00:25:28;;;;;;;31.63;19.57;;;;;;;7.45;100.00;97596.09;5043084;28;20086;-66
2022/04/23 00:27:53;;;;;;;29.50;20.90;;;;;;;7.54;100.00;97606.94;5044845;28;20045;-66
2022/04/23 00:30:19;;;;;;;31.50;20.63;;;;;;;7.55;100.00;97610.31;5041067;28;20090;-66
2022/04/23 00:32:45;;;;;;;33.27;20.73;;;;;;;7.51;100.00;97606.97;5039203;28;20364;-66
2022/04/23 00:35:15;;;;;;;32.57;21.00;;;;;;;7.38;100.00;97590.31;5043979;28;20025;-66
2022/04/23 00:37:41;;;;;;;33.30;20.27;;;;;;;7.38;100.00;97589.47;5043964;28;20471;-66
2022/04/23 00:40:08;;;;;;;30.97;20.50;;;;;;;7.30;100.00;97593.00;5040767;28;20140;-66
2022/04/23 00:42:46;;;;;;;32.20;20.13;;;;;;;7.41;100.00;97609.78;5042129;28;20032;-66
2022/04/23 00:45:12;;;;;;;30.47;21.20;;;;;;;7.35;100.00;97587.81;5043748;28;20041;-66
2022/04/23 00:47:38;;;;;;;32.07;20.00;;;;;;;7.41;100.00;97604.69;5042856;28;20032;-66
2022/04/23 00:50:05;;;;;;;28.63;19.40;;;;;;;7.44;100.00;97605.47;5039978;28;20032;-66
2022/04/23 00:52:32;;;;;;;27.37;18.30;;;;;;;7.47;100.00;97613.03;5042677;28;20106;-66
2022/04/23 00:54:59;;;;;;;29.73;18.57;;;;;;;7.45;100.00;97591.84;5044376;28;20086;-66
2022/04/23 00:57:25;;;;;;;25.97;18.33;;;;;;;7.47;100.00;97591.81;5042698;28;20514;-66
2022/04/23 00:59:52;;;;;;;27.70;18.57;;;;;;;7.58;100.00;97602.59;5040097;28;20659;-66
2022/04/23 01:02:17;;;;;;;28.27;19.30;;;;;;;7.64;100.00;97612.63;5043103;28;20684;-64
2022/04/23 01:04:43;;;;;;;28.67;20.03;;;;;;;7.65;100.00;97624.50;5043573;28;20380;-65
2022/04/23 01:07:11;;;;;;;27.90;18.63;;;;;;;7.65;100.00;97611.75;5040232;28;20079;-65
2022/04/23 01:09:36;;;;;;;27.23;19.97;;;;;;;7.62;100.00;97605.03;5039799;28;20145;-65
2022/04/23 01:12:03;;;;;;;24.20;17.73;;;;;;;7.67;100.00;97623.63;5040852;28;20328;-66
2022/04/23 01:14:29;;;;;;;29.87;20.17;;;;;;;7.60;100.00;97618.69;5040083;28;20139;-66
2022/04/23 01:16:55;;;;;;;26.80;17.60;;;;;;;7.62;100.00;97614.41;5041025;28;20333;-65
2022/04/23 01:19:22;;;;;;;27.07;18.93;;;;;;;7.65;100.00;97611.75;5040148;28;20029;-65
2022/04/23 01:21:47;;;;;;;27.87;19.43;;;;;;;7.58;100.00;97597.50;5040255;28;20449;-65
2022/04/23 01:24:14;;;;;;;28.13;18.87;;;;;;;7.61;100.00;97605.06;5040857;28;20535;-65
2022/04/23 01:26:39;;;;;;;28.03;18.30;;;;;;;7.62;100.00;97620.34;5040342;28;20075;-65
2022/04/23 01:29:05;;;;;;;28.83;19.80;;;;;;;7.66;100.00;97608.34;5040102;28;20461;-65
2022/04/23 01:31:30;;;;;;;29.40;19.67;;;;;;;7.60;100.00;97621.22;5040097;28;20386;-65
2022/04/23 01:33:56;;;;;;;28.33;18.40;;;;;;;7.58;100.00;97623.84;5040182;28;20059;-65
2022/04/23 01:36:22;;;;;;;29.37;19.93;;;;;;;7.53;100.00;97612.06;5039252;28;20094;-65
2022/04/23 01:38:48;;;;;;;29.10;20.53;;;;;;;7.60;100.00;97621.22;5032525;28;20028;-65
2022/04/23 01:41:13;;;;;;;27.13;19.37;;;;;;;7.58;100.00;97605.13;5039879;28;20292;-65
2022/04/23 01:43:39;;;;;;;28.43;19.63;;;;;;;7.60;100.00;97622.06;5039501;28;20772;-65
2022/04/23 01:46:04;;;;;;;27.17;19.07;;;;;;;7.65;100.00;97616.88;5039420;28;20518;-65
2022/04/23 01:48:29;;;;;;;27.13;18.83;;;;;;;7.71;100.00;97622.69;5040622;28;20032;-65
2022/04/23 01:50:55;;;;;;;28.33;18.97;;;;;;;7.61;100.00;97612.72;5037963;28;20541;-65
2022/04/23 01:53:22;;;;;;;29.13;19.17;;;;;;;7.62;100.00;97606.75;5039257;28;20422;-66
2022/04/23 01:55:51;;;;;;;25.30;18.03;;;;;;;7.74;100.00;97614.94;5039405;28;20032;-65
2022/04/23 01:58:16;;;;;;;29.20;19.93;;;;;;;7.70;100.00;97623.53;5040396;28;20517;-66
2022/04/23 02:00:44;;;;;;;26.07;18.10;;;;;;;7.72;100.00;97628.63;5039837;28;20071;-66
2022/04/23 02:03:09;;;;;;;26.27;18.20;;;;;;;7.58;100.00;97605.97;5039522;28;20037;-66
2022/04/23 02:05:34;;;;;;;28.80;19.60;;;;;;;7.66;100.00;97621.09;5039233;28;20041;-66
2022/04/23 02:08:00;;;;;;;29.17;19.73;;;;;;;7.62;100.00;97622.03;5040936;28;20055;-65
2022/04/23 02:10:25;;;;;;;27.10;18.60;;;;;;;7.66;100.00;97613.44;5039072;28;20129;-65
2022/04/23 02:12:51;;;;;;;26.20;19.57;;;;;;;7.76;100.00;97631.06;5039060;28;20063;-65
2022/04/23 02:15:17;;;;;;;28.17;18.40;;;;;;;7.60;100.00;97608.47;5039691;28;20049;-66
2022/04/23 02:17:49;;;;;;;29.67;19.33;;;;;;;7.73;100.00;97631.13;5040503;28;20055;-66
2022/04/23 02:20:16;;;;;;;27.37;17.40;;;;;;;7.81;100.00;97630.91;5026968;28;20040;-66
2022/04/23 02:22:42;;;;;;;29.23;19.17;;;;;;;7.85;100.00;97635.06;5038682;28;20063;-65
2022/04/23 02:25:09;;;;;;;27.87;19.27;;;;;;;7.75;100.00;97625.97;5039143;28;20589;-65
2022/04/23 02:27:45;;;;;;;28.33;18.57;;;;;;;7.82;100.00;97635.16;5039902;28;20148;-66
2022/04/23 02:30:17;;;;;;;28.20;18.60;;;;;;;7.78;100.00;97623.34;5038263;28;20094;-65
2022/04/23 02:32:43;;;;;;;26.77;18.83;;;;;;;7.82;100.00;97630.91;5039404;28;20524;-66
2022/04/23 02:35:10;;;;;;;30.57;19.57;;;;;;;7.81;100.00;97631.75;5039194;28;20196;-66
2022/04/23 02:37:35;;;;;;;27.30;19.23;;;;;;;7.78;100.00;97623.34;5039090;28;20523;-66
2022/04/23 02:40:07;;;;;;;25.80;18.13;;;;;;;7.84;100.00;97633.41;5038261;28;20433;-65
2022/04/23 02:42:33;;;;;;;27.10;18.80;;;;;;;7.84;100.00;97620.66;5039664;28;20043;-66
2022/04/23 02:45:01;;;;;;;26.20;18.57;;;;;;;7.77;100.00;97614.00;5039363;28;20487;-66
2022/04/23 02:47:45;;;;;;;25.87;18.00;;;;;;;7.85;100.00;97621.50;5042723;28;20053;-66
2022/04/23 02:50:11;;;;;;;29.07;19.60;;;;;;;7.78;100.00;97624.19;5039967;28;20044;-66
2022/04/23 02:52:39;;;;;;;27.43;18.10;;;;;;;7.75;100.00;97619.19;5039555;28;20153;-66
2022/04/23 02:55:06;;;;;;;27.60;19.77;;;;;;;7.83;100.00;97618.97;5041233;28;20048;-66
2022/04/23 02:57:31;;;;;;;25.33;19.00;;;;;;;7.82;100.00;97617.28;5040129;28;20116;-66
2022/04/23 02:59:58;;;;;;;27.43;18.43;;;;;;;7.84;100.00;97628.31;5038057;28;20036;-66
2022/04/23 03:02:23;;;;;;;28.23;20.13;;;;;;;7.90;100.00;97624.75;5038410;28;20044;-66
2022/04/23 03:04:49;;;;;;;26.73;18.03;;;;;;;7.78;100.00;97613.16;5041551;28;20441;-66
2022/04/23 03:07:14;;;;;;;27.07;19.43;;;;;;;7.74;100.00;97621.75;5040154;28;20033;-66
2022/04/23 03:09:39;;;;;;;28.63;19.43;;;;;;;7.87;100.00;97629.94;5038673;28;20472;-66
2022/04/23 03:12:05;;;;;;;29.37;20.20;;;;;;;8.01;100.00;97635.56;5038633;28;20621;-66
2022/04/23 03:14:31;;;;;;;34.07;20.20;;;;;;;7.89;100.00;97640.97;5041927;28;20044;-66
2022/04/23 03:16:56;;;;;;;31.53;19.43;;;;;;;7.89;100.00;97639.25;5040084;28;20033;-66
2022/04/23 03:19:22;;;;;;;30.40;20.77;;;;;;;7.83;100.00;97639.41;5037835;28;20082;-66
2022/04/23 03:21:47;;;;;;;31.10;20.37;;;;;;;7.87;100.00;97643.53;5038830;28;20025;-66
2022/04/23 03:24:12;;;;;;;34.17;20.93;;;;;;;7.92;100.00;97648.53;5041890;28;20052;-66
2022/04/23 03:26:38;;;;;;;35.27;22.10;;;;;;;7.93;100.00;97651.06;5039487;28;20115;-66
2022/04/23 03:29:05;;;;;;;33.40;20.10;;;;;;;7.98;100.00;97650.94;5038866;28;20070;-66
2022/04/23 03:31:30;;;;;;;36.10;22.47;;;;;;;7.99;100.00;97660.25;5038474;28;20036;-66
2022/04/23 03:33:56;;;;;;;31.60;21.10;;;;;;;7.94;100.00;97652.72;5040345;28;20479;-66
2022/04/23 03:36:21;;;;;;;33.70;20.97;;;;;;;7.88;100.00;97650.34;5037959;28;20104;-66
2022/04/23 03:38:47;;;;;;;37.00;21.43;;;;;;;7.81;100.00;97641.97;5040535;28;20040;-65
2022/04/23 03:41:13;;;;;;;37.80;22.23;;;;;;;7.90;100.00;97653.66;5033751;28;20036;-65
2022/04/23 03:43:38;;;;;;;34.33;22.20;;;;;;;7.80;100.00;97642.03;5044108;28;20033;-66
2022/04/23 03:46:04;;;;;;;37.40;22.37;;;;;;;7.88;100.00;97660.53;5041730;28;20343;-66
2022/04/23 03:48:29;;;;;;;37.30;22.43;;;;;;;7.87;100.00;97656.31;5041103;28;20032;-66
2022/04/23 03:50:55;;;;;;;40.10;23.57;;;;;;;7.85;100.00;97650.38;5043158;28;20020;-66
2022/04/23 03:53:20;;;;;;;39.73;22.60;;;;;;;7.99;100.00;97668.75;5043594;28;20033;-65
2022/04/23 03:55:46;;;;;;;42.20;24.27;;;;;;;7.95;100.00;97664.63;5040860;28;20036;-65
2022/04/23 03:58:12;;;;;;;40.80;23.77;;;;;;;7.98;100.00;97668.78;5040777;28;20581;-65
2022/04/23 04:00:38;;;;;;;35.67;22.23;;;;;;;8.01;100.00;97661.94;5042901;28;20033;-65
2022/04/23 04:03:03;;;;;;;41.00;23.33;;;;;;;8.01;100.00;97661.09;5044420;28;20206;-65
2022/04/23 04:05:29;;;;;;;38.60;23.17;;;;;;;7.90;100.00;97651.13;5041212;28;20585;-65
2022/04/23 04:07:54;;;;;;;43.07;25.07;;;;;;;7.97;100.00;97662.03;5040901;28;20037;-65
2022/04/23 04:10:22;;;;;;;47.73;26.47;;;;;;;8.01;100.00;97667.03;5043803;28;20440;-65
2022/04/23 04:12:49;;;;;;;45.53;26.40;;;;;;;8.03;100.00;97666.97;5046228;28;20025;-65
2022/04/23 04:15:15;;;;;;;45.90;26.27;;;;;;;7.99;100.00;97656.00;5042768;28;20057;-65
2022/04/23 04:17:41;;;;;;;50.10;28.55;;;;;;;8.08;100.00;97665.16;5041960;28;20126;-65
2022/04/23 04:20:12;;;;;;;49.37;28.27;;;;;;;8.12;100.00;97667.59;5044192;28;20565;-65
2022/04/23 04:22:41;;;;;;;48.17;28.20;;;;;;;8.14;100.00;97665.84;5044986;28;20025;-65
2022/04/23 04:25:08;;;;;;;55.28;30.15;;;;;;;8.14;100.00;97667.56;5040706;28;20425;-65
2022/04/23 04:27:34;;;;;;;54.97;31.75;;;;;;;8.12;100.00;97657.38;5041232;28;20040;-65
2022/04/23 04:30:05;;;;;;;54.37;30.30;;;;;;;8.19;100.00;97668.25;5044847;28;20105;-65
2022/04/23 04:32:31;;;;;;;59.83;30.53;;;;;;;8.10;100.00;97658.31;5043785;28;20024;-65
2022/04/23 04:34:56;;;;;;;49.70;29.55;;;;;;;8.15;100.00;97675.16;5040280;28;20784;-65
2022/04/23 04:37:22;;;;;;;55.95;30.75;;;;;;;8.11;100.00;97657.41;5041473;28;20560;-65
2022/04/23 04:39:47;;;;;;;55.60;30.03;;;;;;;8.20;100.00;97675.06;5045058;28;20032;-65
2022/04/23 04:42:14;;;;;;;51.07;27.70;;;;;;;8.17;100.00;97670.88;5043730;28;20029;-65
2022/04/23 04:44:40;;;;;;;45.58;26.63;;;;;;;8.14;100.00;97665.84;5041344;28;20041;-65
2022/04/23 04:47:06;;;;;;;42.45;26.02;;;;;;;8.15;100.00;97667.50;5041170;28;20029;-65
2022/04/23 04:49:31;;;;;;;43.67;24.57;;;;;;;8.15;100.00;97671.78;5044046;28;20037;-65
2022/04/23 04:51:57;;;;;;;44.35;26.23;;;;;;;8.14;100.00;97663.31;5042712;28;20064;-65
2022/04/23 04:54:23;;;;;;;40.53;22.77;;;;;;;8.14;100.00;97676.06;5039986;28;20036;-65
2022/04/23 04:56:50;;;;;;;39.42;23.80;;;;;;;8.22;100.00;97675.88;5040961;28;20479;-65
2022/04/23 04:59:15;;;;;;;39.35;22.88;;;;;;;8.22;100.00;97668.22;5044001;28;20041;-64
2022/04/23 05:01:41;;;;;;;38.83;23.70;;;;;;;8.21;100.00;97656.31;5042109;28;20040;-65
2022/04/23 05:04:07;;;;;;;46.65;25.92;;;;;;;8.23;100.00;97675.00;5039624;28;20059;-65
2022/04/23 05:06:32;;;;;;;50.13;28.77;;;;;;;8.26;100.00;97674.91;5041011;28;20113;-65
2022/04/23 05:08:58;;;;;;;58.17;28.40;;;;;;;8.31;100.00;97677.38;5043427;28;20088;-64
2022/04/23 05:11:24;;;;;;;71.22;35.85;;;;;;;8.30;100.00;97670.59;5041110;28;20036;-65
2022/04/23 05:13:50;;;;;;;71.82;38.45;;;;;;;8.43;100.00;97680.47;5039847;28;20068;-65
2022/04/23 05:16:15;;;;;;;74.55;44.05;;;;;;;8.51;100.00;97675.16;5040773;28;20033;-65
2022/04/23 05:18:41;;;;;;;73.32;39.40;;;;;;;8.58;100.00;97685.16;5043785;28;20029;-65
2022/04/23 05:21:06;;;;;;;75.18;38.17;;;;;;;8.61;100.00;97686.81;5040421;28;20029;-66
2022/04/23 05:23:32;;;;;;;71.20;38.45;;;;;;;8.60;100.00;97685.13;5040084;28;20041;-65
2022/04/23 05:25:58;;;;;;;73.28;41.35;;;;;;;8.68;100.00;97696.81;5041515;28;20035;-65
2022/04/23 05:28:24;;;;;;;71.18;41.30;;;;;;;8.79;100.00;97704.19;5043824;28;20060;-67
2022/04/23 05:30:49;;;;;;;63.38;36.15;;;;;;;8.83;100.00;97703.22;5039211;28;20475;-66
2022/04/23 05:33:15;;;;;;;59.80;35.08;;;;;;;8.90;100.00;97702.22;5039473;28;20025;-65
2022/04/23 05:35:40;;;;;;;59.42;33.22;;;;;;;8.90;100.00;97703.91;5040240;28;20033;-65
2022/04/23 05:38:06;;;;;;;61.05;33.05;;;;;;;8.95;100.00;97718.25;5043101;28;20501;-65
2022/04/23 05:40:32;;;;;;;68.15;41.72;;;;;;;8.83;100.00;97693.00;5039847;28;20025;-65
2022/04/23 05:42:58;;;;;;;68.30;37.72;;;;;;;8.87;100.00;97711.69;5039783;28;20079;-65
2022/04/23 05:45:28;;;;;;;71.40;42.28;;;;;;;8.83;100.00;97717.72;5041242;28;20116;-65
2022/04/23 05:47:54;;;;;;;65.93;40.88;;;;;;;8.85;100.00;97724.50;5042937;28;20111;-65
2022/04/23 05:50:20;;;;;;;59.65;34.70;;;;;;;8.86;100.00;97730.44;5039820;28;20036;-65
2022/04/23 05:52:46;;;;;;;57.42;33.55;;;;;;;8.88;100.00;97723.56;5041866;28;20033;-65
2022/04/23 05:55:12;;;;;;;60.58;32.92;;;;;;;8.77;100.00;97733.25;5041111;28;21081;-65
2022/04/23 05:57:37;;;;;;;65.00;39.97;;;;;;;8.83;100.00;97733.91;5042292;28;20032;-64
2022/04/23 06:00:05;;;;;;;59.60;36.97;;;;;;;8.85;100.00;97734.72;5038913;28;20040;-65
2022/04/23 06:02:31;;;;;;;52.80;32.20;;;;;;;8.85;100.00;97738.97;5039747;28;20031;-64
2022/04/23 06:04:57;;;;;;;60.85;33.72;;;;;;;8.78;100.00;97742.59;5040611;28;20415;-65
2022/04/23 06:07:23;;;;;;;53.58;32.20;;;;;;;8.72;100.00;97730.81;5041275;28;20032;-66
2022/04/23 06:09:48;;;;;;;52.20;30.08;;;;;;;8.82;100.00;97747.59;5039262;28;20040;-65
2022/04/23 06:12:13;;;;;;;59.25;38.63;;;;;;;8.83;100.00;97748.41;5038771;28;20044;-65
2022/04/23 06:14:39;;;;;;;53.13;31.95;;;;;;;8.85;100.00;97746.66;5040708;28;20055;-61
2022/04/23 06:17:10;;;;;;;56.67;31.80;;;;;;;8.81;100.00;97729.72;5040726;28;20570;-60
2022/04/23 06:19:36;;;;;;;57.47;38.10;;;;;;;8.88;100.00;97737.19;5039142;28;20090;-60
2022/04/23 06:22:01;;;;;;;46.42;33.97;;;;;;;8.87;100.00;97734.69;5038729;28;20467;-60
2022/04/23 06:24:27;;;;;;;55.53;37.22;;;;;;;8.83;100.00;97735.63;5040053;28;20487;-60
2022/04/23 06:26:52;;;;;;;49.85;34.70;;;;;;;9.03;100.00;97759.78;5040136;28;20033;-60
2022/04/23 06:29:17;;;;;;;51.72;36.72;;;;;;;8.86;100.00;97738.13;5038914;28;20135;-60
2022/04/23 06:31:43;;;;;;;44.42;32.60;;;;;;;9.02;100.00;97755.56;5039040;28;20502;-60
2022/04/23 06:34:09;;;;;;;51.88;32.17;;;;;;;9.00;100.00;97741.97;5040588;28;20029;-61
2022/04/23 06:36:36;;;;;;;47.88;28.33;;;;;;;9.00;100.00;97756.44;5039866;28;20577;-60
2022/04/23 06:39:02;;;;;;;48.55;29.02;;;;;;;9.14;100.00;97765.44;5039340;28;20051;-63
2022/04/23 06:41:28;;;;;;;44.30;27.85;;;;;;;9.17;100.00;97765.34;5039181;28;20095;-66
2022/04/23 06:43:53;;;;;;;41.03;24.33;;;;;;;9.14;100.00;97770.56;5038519;28;20585;-67
2022/04/23 06:46:19;;;;;;;41.53;26.23;;;;;;;9.22;100.00;97764.38;5037455;28;20025;-66
2022/04/23 06:48:44;;;;;;;40.70;25.60;;;;;;;9.11;100.00;97759.59;5038969;28;20025;-66
2022/04/23 06:51:10;;;;;;;46.65;27.33;;;;;;;9.09;100.00;97754.50;5038297;28;20490;-66
2022/04/23 06:53:36;;;;;;;39.30;25.25;;;;;;;9.05;100.00;97755.47;5038662;28;20049;-66
2022/04/23 06:56:03;;;;;;;42.40;26.15;;;;;;;9.24;100.00;97770.31;5038198;28;20032;-67
2022/04/23 06:58:28;;;;;;;43.03;26.92;;;;;;;9.12;100.00;97767.19;5039795;28;20064;-66
2022/04/23 07:00:54;;;;;;;42.72;26.80;;;;;;;9.20;100.00;97778.94;5038791;28;20537;-66
2022/04/23 07:03:20;;;;;;;44.03;26.15;;;;;;;9.15;100.00;97777.34;5038712;28;20447;-67
2022/04/23 07:05:46;;;;;;;42.67;26.83;;;;;;;9.18;100.00;97772.16;5038753;28;20043;-66
2022/04/23 07:08:12;;;;;;;41.60;25.77;;;;;;;9.08;100.00;97772.47;5040486;28;20498;-66
2022/04/23 07:10:38;;;;;;;40.70;25.95;;;;;;;9.17;100.00;97780.69;5039010;28;20493;-67
2022/04/23 07:13:04;;;;;;;44.70;25.15;;;;;;;9.23;100.00;97783.97;5040747;28;20055;-67
2022/04/23 07:15:31;;;;;;;39.85;26.58;;;;;;;9.24;100.00;97789.06;5042165;28;20422;-67
2022/04/23 07:17:57;;;;;;;42.95;26.48;;;;;;;9.26;100.00;97789.84;5044278;28;20036;-66
2022/04/23 07:20:23;;;;;;;43.25;26.48;;;;;;;9.18;100.00;97772.16;5041601;28;20479;-66
2022/04/23 07:25:33;;;;;;;41.78;27.13;;;;;;;9.31;100.00;97782.88;5042722;28;20082;-67
2022/04/23 07:27:59;;;;;;;42.55;27.30;;;;;;;9.34;100.00;97777.66;5044437;28;20514;-67
2022/04/23 07:30:26;;;;;;;42.10;26.02;;;;;;;9.36;100.00;97782.75;5042404;28;20156;-67
2022/04/23 07:32:55;;;;;;;41.35;25.63;;;;;;;9.41;100.00;97786.03;5042452;28;20036;-66
2022/04/23 07:38:21;;;;;;;37.70;24.90;;;;;;;9.56;100.00;97783.03;5043899;28;20118;-61
2022/04/23 07:40:49;;;;;;;38.78;24.83;;;;;;;9.51;100.00;97782.31;5041507;28;20548;-61
2022/04/23 07:43:15;;;;;;;32.30;21.58;;;;;;;9.46;100.00;97779.88;5042548;28;20199;-61
2022/04/23 07:45:42;;;;;;;38.70;23.25;;;;;;;9.52;100.00;97792.50;5044595;28;20124;-61
2022/04/23 07:48:09;;;;;;;36.50;23.23;;;;;;;9.56;100.00;97770.22;5042067;28;20047;-60
2022/04/23 07:50:37;;;;;;;35.25;22.38;;;;;;;9.69;100.00;97783.50;5041189;28;20036;-61
2022/04/23 07:53:03;;;;;;;33.65;23.38;;;;;;;9.78;100.00;97780.69;5042992;28;20033;-60
2022/04/23 07:55:38;;;;;;;34.38;21.75;;;;;;;9.95;100.00;97784.44;5044574;28;20056;-60
2022/04/23 07:58:04;;;;;;;41.20;23.50;;;;;;;10.08;100.00;97787.47;5041363;28;20036;-61
2022/04/23 08:00:36;;;;;;;33.60;21.85;;;;;;;10.12;100.00;97778.78;5041821;28;20118;-60
2022/04/23 08:03:05;;;;;;;37.13;23.60;;;;;;;10.14;100.00;97797.53;5041186;28;20505;-60
2022/04/23 08:05:32;;;;;;;34.15;21.70;;;;;;;10.19;100.00;97802.50;5044643;28;20560;-59
2022/04/23 08:07:58;;;;;;;31.98;23.40;;;;;;;9.91;100.00;97799.94;5041211;28;20471;-59
2022/04/23 08:10:25;;;;;;;36.83;22.63;;;;;;;10.05;100.00;97814.00;5040811;28;20029;-60
2022/04/23 08:12:50;;;;;;;37.78;23.50;;;;;;;9.98;100.00;97809.94;5042321;28;20040;-60
2022/04/23 08:15:16;;;;;;;34.35;21.95;;;;;;;10.05;100.00;97813.16;5044293;28;20053;-60
2022/04/23 08:17:42;;;;;;;32.70;21.67;;;;;;;9.94;100.00;97808.34;5040840;28;20037;-60
2022/04/23 08:20:08;;;;;;;32.88;22.17;;;;;;;9.88;100.00;97816.22;5041256;28;20132;-60
2022/04/23 08:22:34;;;;;;;36.92;22.17;;;;;;;9.88;100.00;97820.50;5042092;28;20037;-59
2022/04/23 08:25:00;;;;;;;27.77;18.83;;;;;;;9.94;100.00;97821.16;5043930;28;20549;-60
2022/04/23 08:27:25;;;;;;;33.15;22.15;;;;;;;9.98;100.00;97811.66;5039616;28;20082;-60
2022/04/23 08:32:35;;;;;;;29.70;19.42;;;;;;;9.90;100.00;97804.19;5041514;28;20056;-59
2022/04/23 08:35:01;;;;;;;29.38;20.30;;;;;;;10.06;100.00;97804.56;5041903;28;20510;-60
2022/04/23 08:37:27;;;;;;;31.95;20.88;;;;;;;10.26;100.00;97807.44;5038353;28;20557;-60
2022/04/23 08:39:52;;;;;;;28.48;19.33;;;;;;;10.41;100.00;97809.50;5038056;28;20040;-61
2022/04/23 08:42:18;;;;;;;35.53;23.85;;;;;;;10.47;100.00;97811.03;5040840;28;20036;-60
2022/04/23 08:44:45;;;;;;;29.85;19.60;;;;;;;10.58;100.00;97808.13;5042057;28;20043;-60
2022/04/23 08:47:11;;;;;;;28.38;19.80;;;;;;;10.73;100.00;97808.47;5038005;28;20553;-60
2022/04/23 08:49:41;;;;;;;32.35;21.02;;;;;;;10.71;100.00;97794.84;5037653;28;20029;-61
2022/04/23 08:52:16;;;;;;;30.92;20.85;;;;;;;10.91;100.00;97807.84;5041247;28;20128;-61
2022/04/23 08:54:43;;;;;;;34.35;19.85;;;;;;;10.94;100.00;97812.06;5040416;28;20025;-64
2022/04/23 08:57:09;;;;;;;33.63;21.42;;;;;;;10.92;100.00;97811.25;5037401;28;20032;-60
2022/04/23 08:59:36;;;;;;;30.13;20.75;;;;;;;10.88;100.00;97804.56;5038432;28;20083;-60
2022/04/23 09:02:02;;;;;;;30.45;20.08;;;;;;;10.98;100.00;97804.22;5041297;28;20049;-60
2022/04/23 09:04:28;;;;;;;31.75;21.25;;;;;;;11.17;100.00;97813.81;5040982;28;20058;-60
2022/04/23 09:06:54;;;;;;;34.80;21.80;;;;;;;11.22;100.00;97796.53;5037149;28;20501;-59
2022/04/23 09:09:21;;;;;;;32.65;21.77;;;;;;;11.29;100.00;97796.25;5038382;28;20024;-60
2022/04/23 09:11:52;;;;;;;28.95;19.50;;;;;;;11.57;100.00;97808.97;5041228;28;20025;-60
2022/04/23 09:14:23;;;;;;;34.28;22.35;;;;;;;11.52;100.00;97810.00;5039050;28;20686;-59
2022/04/23 09:25:10;;;;;;;31.90;21.83;;;;;;;12.11;100.00;97800.13;5039292;28;20075;-62
2022/04/23 09:27:37;;;;;;;33.88;21.60;;;;;;;12.05;100.00;97806.31;5038470;28;20041;-59
2022/04/23 09:30:06;;;;;;;32.30;26.80;;;;;;;12.17;100.00;97813.59;5041901;28;20123;-60
2022/04/23 09:32:32;;;;;;;29.45;21.33;;;;;;;12.21;100.00;97801.47;5039433;28;20098;-60
2022/04/23 09:35:11;;;;;;;35.35;23.25;;;;;;;12.34;100.00;97812.94;5037198;28;20456;-60
2022/04/23 09:40:23;;;;;;;;;;;;;;;12.64;100.00;97804.00;5042208;28;20102;-61
2022/04/23 09:43:15;;;;;;;31.33;21.42;;;;;;;12.83;100.00;97799.78;5040387;28;19912;-60
2022/04/23 09:45:43;;;;;;;33.03;22.38;;;;;;;12.92;100.00;97782.28;5033592;28;20090;-61
2022/04/23 09:48:11;;;;;;;33.03;24.17;;;;;;;13.08;100.00;97807.31;5040516;28;20040;-60
2022/04/23 09:50:38;;;;;;;33.55;22.27;;;;;;;13.16;100.00;97784.69;5040654;28;20144;-60
2022/04/23 09:53:14;;;;;;;35.15;26.48;;;;;;;13.50;100.00;97796.09;5038475;28;20203;-60
2022/04/23 09:55:40;;;;;;;34.33;26.35;;;;;;;13.85;100.00;97797.09;5037488;28;20080;-60
2022/04/23 09:58:08;;;;;;;34.17;26.02;;;;;;;13.80;100.00;97794.72;5041666;28;20555;-62
2022/04/23 10:00:40;;;;;;;34.22;26.20;;;;;;;13.80;100.00;97797.28;5039398;28;20119;-61
2022/04/23 10:03:07;;;;;;;35.20;24.70;;;;;;;13.90;100.00;97811.44;5037279;28;20229;-61
2022/04/23 10:05:39;;;;;;;40.63;26.67;;;;;;;13.58;100.00;97817.19;5038198;28;20127;-61
2022/04/23 10:08:13;;;;;;;32.88;25.27;;;;;;;13.51;100.00;97820.94;5041653;28;20463;-61
2022/04/23 10:10:54;;;;;;;33.88;24.52;;;;;;;13.36;100.00;97811.31;5040943;28;20055;-62
2022/04/23 10:13:22;;;;;;;32.50;25.13;;;;;;;13.30;100.00;97812.41;5037727;28;20140;-60
2022/04/23 10:15:48;;;;;;;35.85;26.75;;;;;;;13.13;100.00;97807.97;5041840;28;20418;-61
2022/04/23 10:18:15;;;;;;;29.60;23.48;;;;;;;13.47;100.00;97816.81;5042645;28;20137;-60
2022/04/23 10:20:41;;;;;;;33.72;24.58;;;;;;;13.54;100.00;97807.91;5039877;28;20045;-61
2022/04/23 10:23:27;;;;;;;33.08;22.85;;;;;;;13.86;100.00;97812.50;5038722;28;20076;-61
2022/04/23 10:26:11;;;;;;;30.45;23.48;;;;;;;14.08;100.00;97814.94;5041790;28;20071;-61
2022/04/23 10:28:48;;;;;;;33.03;23.67;;;;;;;14.18;100.00;97806.69;5040863;28;20032;-60
2022/04/23 10:31:15;;;;;;;30.73;23.55;;;;;;;14.28;100.00;97803.69;5034787;28;20431;-60
2022/04/23 10:33:52;;;;;;;29.55;23.63;;;;;;;14.62;100.00;97804.63;5038133;28;20467;-61
2022/04/23 10:36:19;;;;;;;31.48;23.65;;;;;;;14.67;100.00;97806.13;5041553;28;20140;-61
2022/04/23 10:38:51;;;;;;;30.77;23.65;;;;;;;14.70;100.00;97795.66;5041097;28;20115;-61
2022/04/23 10:41:18;;;;;;;30.23;22.33;;;;;;;14.65;100.00;97795.88;5039394;28;20037;-60
2022/04/23 10:43:47;;;;;;;30.60;21.98;;;;;;;14.76;100.00;97796.22;5042785;28;20093;-60
2022/04/23 10:46:37;;;;;;;30.42;23.48;;;;;;;14.85;100.00;97802.66;5042587;28;20039;-60
2022/04/23 10:49:23;;;;;;;32.90;24.00;;;;;;;14.73;100.00;97798.09;5042864;28;20040;-59
2022/04/23 10:51:56;;;;;;;34.55;25.40;;;;;;;14.48;100.00;97791.53;5041164;28;20036;-60
2022/04/23 10:54:40;;;;;;;35.40;25.63;;;;;;;14.39;100.00;97791.13;5044112;28;20514;-57
2022/04/23 10:57:14;;;;;;;30.83;24.67;;;;;;;14.23;100.00;97798.72;5044441;28;20036;-59
2022/04/23 10:59:44;;;;;;;36.65;24.75;;;;;;;13.94;100.00;97799.25;5041039;28;20390;-60
2022/04/23 11:02:19;;;;;;;32.08;24.95;;;;;;;13.60;100.00;97805.09;5043137;28;20033;-61
2022/04/23 11:14:04;;;;;;;29.33;22.08;;;;;;;13.85;100.00;97802.25;5046086;28;20107;-62
2022/04/23 11:16:30;;;;;;;26.13;22.15;;;;;;;13.84;100.00;97778.22;5045216;28;20036;-62
2022/04/23 11:19:00;;;;;;;32.17;23.25;;;;;;;13.81;100.00;97777.53;5042402;28;20466;-62
2022/04/23 11:21:28;;;;;;;29.10;22.85;;;;;;;13.86;100.00;97780.72;5044154;28;20494;-62
2022/04/23 11:24:01;;;;;;;27.88;21.17;;;;;;;13.93;100.00;97782.13;5045780;28;20506;-62
2022/04/23 11:26:40;;;;;;;28.92;21.58;;;;;;;14.17;100.00;97788.72;5043951;28;20106;-61
2022/04/23 11:29:05;;;;;;;28.60;22.38;;;;;;;14.10;100.00;97777.00;5042254;28;20040;-61
2022/04/23 11:31:31;;;;;;;28.27;22.17;;;;;;;14.27;100.00;97774.47;5043152;28;20025;-61
2022/04/23 11:33:58;;;;;;;30.88;22.48;;;;;;;14.59;100.00;97784.13;5040002;28;20395;-62
2022/04/23 11:36:28;;;;;;;29.30;21.75;;;;;;;15.07;100.00;97780.00;5042219;28;20033;-62
2022/04/23 11:38:55;;;;;;;28.48;21.80;;;;;;;15.20;100.00;97781.06;5045464;28;20040;-62
2022/04/23 11:41:41;;;;;;;25.85;21.20;;;;;;;15.33;99.06;97778.69;5042729;28;20094;-62
2022/04/23 11:44:14;;;;;;;25.92;20.80;;;;;;;15.51;98.45;97772.59;5040292;28;20032;-61